CYWK

Wabush Airport

Wabush, Canada
TAF CYWK 211938Z 2120/2208 01012G22KT P6SM FEW050 BKN100 BECMG 2200/2202 FEW100 RMK NXT FCST BY 220200Z
Issued Valid From Valid To
Jan-21 @ 19:38 UTC
(5 hours ago)
Jan-21 @ 20:00 UTC
(4 hours ago)
Jan-22 @ 08:00 UTC
(in 8 hours)
Expired Click to View Jan-21 @ 20:00 to Jan-22 @ 00:00
TAF CYWK 211938Z 2120/2208 01012G22KT P6SM FEW050 BKN100
Wind Visibility Clouds
10° at 12 knots
 Gusting to 22 knots
Greater than 6 miles
  • Few at 5,000' AGL
  • Broken at 10,000' AGL
Becoming Jan-22 @ 00:00 to Jan-22 @ 08:00
BECMG 2200/2202 FEW100 RMK NXT FCST BY 220200Z
Wind Visibility Clouds
10° at 12 knots
 Gusting to 22 knots
Greater than 6 miles
  • Few at 10,000' AGL
TAF CYWK 211938Z 2120/2208 01012G22KT P6SM FEW050 BKN100 BECMG 2200/2202 FEW100 RMK NXT FCST BY 220200Z
Issued Jan-21 @ 19:38 UTC
(5 hours ago)
Valid From Jan-21 @ 20:00 UTC
(4 hours ago)
Valid To Jan-22 @ 08:00 UTC
(in 8 hours)
Jan-21 @ 20:00 - Jan-22 @ 00:00
Wind Visibility
10° at 12 knots
 Gusting to 22 knots
Greater than 6 miles
Clouds
  • Few at 5,000' AGL
  • Broken at 10,000' AGL
Becoming Jan-22 @ 00:00 - Jan-22 @ 08:00
Wind Visibility
10° at 12 knots
 Gusting to 22 knots
Greater than 6 miles
Clouds
  • Few at 10,000' AGL